sensor_id;sensor_type;location;lat;lon;timestamp;pressure;altitude;pressure_sealevel;temperature;humidity
25392;BME280;13329;48.402;11.718;2024-01-10T00:01:49;96942.63;;;-5.71;74.49
25392;BME280;13329;48.402;11.718;2024-01-10T00:04:14;96946.56;;;-5.67;74.22
25392;BME280;13329;48.402;11.718;2024-01-10T00:06:41;96951.13;;;-5.80;75.44
25392;BME280;13329;48.402;11.718;2024-01-10T00:09:07;96957.78;;;-5.68;75.16
25392;BME280;13329;48.402;11.718;2024-01-10T00:11:33;96955.84;;;-5.85;74.63
25392;BME280;13329;48.402;11.718;2024-01-10T00:13:58;96951.00;;;-5.98;75.63
25392;BME280;13329;48.402;11.718;2024-01-10T00:16:28;96952.91;;;-5.71;75.97
25392;BME280;13329;48.402;11.718;2024-01-10T00:18:53;96952.50;;;-5.76;75.28
25392;BME280;13329;48.402;11.718;2024-01-10T00:21:19;96956.03;;;-5.68;75.37
25392;BME280;13329;48.402;11.718;2024-01-10T00:23:44;96951.06;;;-5.40;74.84
25392;BME280;13329;48.402;11.718;2024-01-10T00:26:09;96951.34;;;-5.33;74.23
25392;BME280;13329;48.402;11.718;2024-01-10T00:28:34;96952.28;;;-5.54;74.90
25392;BME280;13329;48.402;11.718;2024-01-10T00:31:00;96945.22;;;-5.52;75.77
25392;BME280;13329;48.402;11.718;2024-01-10T00:33:26;96940.38;;;-5.16;74.17
25392;BME280;13329;48.402;11.718;2024-01-10T00:35:51;96943.75;;;-5.25;74.24
25392;BME280;13329;48.402;11.718;2024-01-10T00:38:16;96933.72;;;-5.48;74.65
25392;BME280;13329;48.402;11.718;2024-01-10T00:40:41;96940.38;;;-5.26;75.31
25392;BME280;13329;48.402;11.718;2024-01-10T00:43:07;96940.66;;;-5.29;74.16
25392;BME280;13329;48.402;11.718;2024-01-10T00:45:32;96945.78;;;-5.00;73.25
25392;BME280;13329;48.402;11.718;2024-01-10T00:47:58;96946.56;;;-4.80;72.12
25392;BME280;13329;48.402;11.718;2024-01-10T00:50:23;96945.53;;;-5.45;73.67
25392;BME280;13329;48.402;11.718;2024-01-10T00:52:48;96944.41;;;-5.62;76.18
25392;BME280;13329;48.402;11.718;2024-01-10T00:55:14;96938.06;;;-5.29;75.00
25392;BME280;13329;48.402;11.718;2024-01-10T00:57:39;96944.41;;;-4.94;74.81
25392;BME280;13329;48.402;11.718;2024-01-10T01:00:08;96949.56;;;-4.94;73.57
25392;BME280;13329;48.402;11.718;2024-01-10T01:02:35;96952.03;;;-5.41;75.58
25392;BME280;13329;48.402;11.718;2024-01-10T01:05:02;96950.53;;;-5.34;76.07
25392;BME280;13329;48.402;11.718;2024-01-10T01:07:27;96950.63;;;-5.93;77.42
25392;BME280;13329;48.402;11.718;2024-01-10T01:09:53;96950.66;;;-5.45;77.31
25392;BME280;13329;48.402;11.718;2024-01-10T01:12:18;96946.88;;;-5.31;77.10
25392;BME280;13329;48.402;11.718;2024-01-10T01:14:43;96950.91;;;-5.58;78.04
25392;BME280;13329;48.402;11.718;2024-01-10T01:17:09;96952.91;;;-5.71;77.75
25392;BME280;13329;48.402;11.718;2024-01-10T01:19:34;96956.06;;;-5.58;78.58
25392;BME280;13329;48.402;11.718;2024-01-10T01:21:59;96963.94;;;-5.30;77.45
25392;BME280;13329;48.402;11.718;2024-01-10T01:24:24;96956.81;;;-5.96;79.45
25392;BME280;13329;48.402;11.718;2024-01-10T01:26:50;96956.06;;;-5.58;79.82
25392;BME280;13329;48.402;11.718;2024-01-10T01:29:15;96964.47;;;-5.17;78.77
25392;BME280;13329;48.402;11.718;2024-01-10T01:31:41;96967.72;;;-5.15;77.21
25392;BME280;13329;48.402;11.718;2024-01-10T01:34:06;96966.91;;;-5.06;77.20
25392;BME280;13329;48.402;11.718;2024-01-10T01:36:31;96968.63;;;-5.74;78.70
25392;BME280;13329;48.402;11.718;2024-01-10T01:38:56;96970.03;;;-6.01;78.95
25392;BME280;13329;48.402;11.718;2024-01-10T01:41:22;96974.16;;;-5.69;79.82
25392;BME280;13329;48.402;11.718;2024-01-10T01:43:47;96977.28;;;-5.56;80.83
25392;BME280;13329;48.402;11.718;2024-01-10T01:46:13;96955.00;;;-5.55;79.32
25392;BME280;13329;48.402;11.718;2024-01-10T01:48:38;96977.97;;;-5.54;79.73
25392;BME280;13329;48.402;11.718;2024-01-10T01:51:07;96972.72;;;-5.23;78.90
25392;BME280;13329;48.402;11.718;2024-01-10T01:53:35;96972.47;;;-5.01;77.46
25392;BME280;13329;48.402;11.718;2024-01-10T01:56:06;96976.94;;;-4.93;76.91
25392;BME280;13329;48.402;11.718;2024-01-10T01:58:32;96979.88;;;-4.69;75.53
25392;BME280;13329;48.402;11.718;2024-01-10T02:00:58;96973.94;;;-4.69;74.67
25392;BME280;13329;48.402;11.718;2024-01-10T02:03:25;96974.31;;;-4.64;74.13
25392;BME280;13329;48.402;11.718;2024-01-10T02:05:51;96975.09;;;-4.54;74.31
25392;BME280;13329;48.402;11.718;2024-01-10T02:08:17;96982.56;;;-4.70;74.49
25392;BME280;13329;48.402;11.718;2024-01-10T02:10:42;96976.94;;;-5.03;74.88
25392;BME280;13329;48.402;11.718;2024-01-10T02:13:07;96972.59;;;-5.02;76.21
25392;BME280;13329;48.402;11.718;2024-01-10T02:15:35;96974.78;;;-5.17;76.84
25392;BME280;13329;48.402;11.718;2024-01-10T02:18:00;96978.53;;;-4.82;75.86
25392;BME280;13329;48.402;11.718;2024-01-10T02:20:26;96977.47;;;-4.99;75.32
25392;BME280;13329;48.402;11.718;2024-01-10T02:22:51;96979.22;;;-5.00;75.17
25392;BME280;13329;48.402;11.718;2024-01-10T02:25:17;96979.06;;;-5.08;75.51
25392;BME280;13329;48.402;11.718;2024-01-10T02:27:42;96976.94;;;-5.03;74.91
25392;BME280;13329;48.402;11.718;2024-01-10T02:30:08;96975.59;;;-5.07;74.78
25392;BME280;13329;48.402;11.718;2024-01-10T02:32:34;96973.94;;;-5.27;74.75
25392;BME280;13329;48.402;11.718;2024-01-10T02:35:00;96970.53;;;-5.37;75.69
25392;BME280;13329;48.402;11.718;2024-01-10T02:37:26;96976.50;;;-5.27;75.55
25392;BME280;13329;48.402;11.718;2024-01-10T02:39:51;96976.94;;;-5.22;75.96
25392;BME280;13329;48.402;11.718;2024-01-10T02:42:16;96974.38;;;-5.22;74.31
25392;BME280;13329;48.402;11.718;2024-01-10T02:44:42;96972.88;;;-5.25;74.38
25392;BME280;13329;48.402;11.718;2024-01-10T02:47:07;96972.59;;;-5.22;75.02
25392;BME280;13329;48.402;11.718;2024-01-10T02:49:33;96975.19;;;-5.12;73.91
25392;BME280;13329;48.402;11.718;2024-01-10T02:51:58;96967.72;;;-5.15;73.67
25392;BME280;13329;48.402;11.718;2024-01-10T02:54:24;96972.31;;;-5.19;73.81
25392;BME280;13329;48.402;11.718;2024-01-10T02:56:49;96961.91;;;-5.07;73.91
25392;BME280;13329;48.402;11.718;2024-01-10T02:59:14;96963.94;;;-5.01;73.19
25392;BME280;13329;48.402;11.718;2024-01-10T03:01:39;96962.44;;;-5.04;73.77
25392;BME280;13329;48.402;11.718;2024-01-10T03:04:05;96964.47;;;-5.17;74.20
25392;BME280;13329;48.402;11.718;2024-01-10T03:06:30;96960.81;;;-5.24;74.27
25392;BME280;13329;48.402;11.718;2024-01-10T03:08:55;96962.84;;;-5.28;73.85
25392;BME280;13329;48.402;11.718;2024-01-10T03:11:21;96956.06;;;-5.29;74.66
25392;BME280;13329;48.402;11.718;2024-01-10T03:13:47;96950.94;;;-5.19;74.00
25392;BME280;13329;48.402;11.718;2024-01-10T03:16:13;96952.69;;;-5.39;73.79
25392;BME280;13329;48.402;11.718;2024-01-10T03:18:38;96949.97;;;-5.37;75.22
25392;BME280;13329;48.402;11.718;2024-01-10T03:21:04;96940.91;;;-5.32;75.26
25392;BME280;13329;48.402;11.718;2024-01-10T03:23:29;96954.44;;;-5.30;74.72
25392;BME280;13329;48.402;11.718;2024-01-10T03:25:56;96946.03;;;-5.32;74.99
25392;BME280;13329;48.402;11.718;2024-01-10T03:28:21;96947.53;;;-5.39;75.32
25392;BME280;13329;48.402;11.718;2024-01-10T03:30:46;96937.81;;;-5.35;74.25
25392;BME280;13329;48.402;11.718;2024-01-10T03:33:11;96949.88;;;-5.26;73.55
25392;BME280;13329;48.402;11.718;2024-01-10T03:35:37;96943.75;;;-5.25;73.25
25392;BME280;13329;48.402;11.718;2024-01-10T03:38:02;96945.53;;;-5.35;74.18
25392;BME280;13329;48.402;11.718;2024-01-10T03:40:27;96944.44;;;-5.23;73.31
25392;BME280;13329;48.402;11.718;2024-01-10T03:42:53;96947.13;;;-5.54;74.21
25392;BME280;13329;48.402;11.718;2024-01-10T03:45:18;96950.13;;;-5.49;74.52
25392;BME280;13329;48.402;11.718;2024-01-10T03:47:46;96950.38;;;-5.42;74.97
25392;BME280;13329;48.402;11.718;2024-01-10T03:50:15;96943.75;;;-5.45;74.33
25392;BME280;13329;48.402;11.718;2024-01-10T03:52:40;96944.72;;;-5.46;74.35
25392;BME280;13329;48.402;11.718;2024-01-10T03:55:06;96946.88;;;-5.51;74.76
25392;BME280;13329;48.402;11.718;2024-01-10T03:57:31;96948.34;;;-5.38;74.36
25392;BME280;13329;48.402;11.718;2024-01-10T03:59:56;96948.34;;;-5.38;73.34
25392;BME280;13329;48.402;11.718;2024-01-10T04:02:22;96945.78;;;-5.29;73.93
25392;BME280;13329;48.402;11.718;2024-01-10T04:04:47;96937.81;;;-5.45;73.41
25392;BME280;13329;48.402;11.718;2024-01-10T04:07:12;96933.06;;;-5.50;73.72
25392;BME280;13329;48.402;11.718;2024-01-10T04:09:37;96932.66;;;-5.35;74.78
25392;BME280;13329;48.402;11.718;2024-01-10T04:12:03;96926.72;;;-5.36;75.05
25392;BME280;13329;48.402;11.718;2024-01-10T04:14:28;96933.47;;;-5.25;74.18
25392;BME280;13329;48.402;11.718;2024-01-10T04:16:53;96932.78;;;-5.27;74.44
25392;BME280;13329;48.402;11.718;2024-01-10T04:19:19;96936.19;;;-5.17;74.41
25392;BME280;13329;48.402;11.718;2024-01-10T04:21:45;96935.22;;;-5.16;75.25
25392;BME280;13329;48.402;11.718;2024-01-10T04:24:11;96934.69;;;-5.10;74.36
25392;BME280;13329;48.402;11.718;2024-01-10T04:26:36;96935.66;;;-5.30;75.50
25392;BME280;13329;48.402;11.718;2024-01-10T04:29:01;96942.81;;;-5.24;76.62
25392;BME280;13329;48.402;11.718;2024-01-10T04:31:27;96944.16;;;-5.59;76.56
25392;BME280;13329;48.402;11.718;2024-01-10T04:33:52;96944.31;;;-5.31;77.20
25392;BME280;13329;48.402;11.718;2024-01-10T04:36:17;96938.47;;;-5.53;77.77
25392;BME280;13329;48.402;11.718;2024-01-10T04:38:43;96942.13;;;-5.46;79.47
25392;BME280;13329;48.402;11.718;2024-01-10T04:41:08;96937.50;;;-5.13;78.13
25392;BME280;13329;48.402;11.718;2024-01-10T04:43:33;96927.91;;;-5.11;78.69
25392;BME280;13329;48.402;11.718;2024-01-10T04:45:58;96934.13;;;-5.04;78.92
25392;BME280;13329;48.402;11.718;2024-01-10T04:48:24;96937.81;;;-5.26;79.38
25392;BME280;13329;48.402;11.718;2024-01-10T04:50:49;96939.03;;;-5.30;80.23
25392;BME280;13329;48.402;11.718;2024-01-10T04:53:14;96936.56;;;-4.93;80.04
25392;BME280;13329;48.402;11.718;2024-01-10T04:55:39;96933.84;;;-4.81;79.07
25392;BME280;13329;48.402;11.718;2024-01-10T04:58:05;96944.72;;;-5.07;79.81
25392;BME280;13329;48.402;11.718;2024-01-10T05:00:30;96947.91;;;-4.85;79.82
25392;BME280;13329;48.402;11.718;2024-01-10T05:02:55;96947.38;;;-4.99;81.19
25392;BME280;13329;48.402;11.718;2024-01-10T05:05:21;96947.88;;;-4.66;79.46
25392;BME280;13329;48.402;11.718;2024-01-10T05:07:49;96948.84;;;-4.67;79.94
25392;BME280;13329;48.402;11.718;2024-01-10T05:10:14;96951.63;;;-4.51;79.00
25392;BME280;13329;48.402;11.718;2024-01-10T05:12:40;96949.09;;;-4.70;79.06
25392;BME280;13329;48.402;11.718;2024-01-10T05:15:05;96952.75;;;-4.63;79.74
25392;BME280;13329;48.402;11.718;2024-01-10T05:17:31;96956.88;;;-4.90;80.60
25392;BME280;13329;48.402;11.718;2024-01-10T05:19:56;96953.03;;;-4.66;80.54
25392;BME280;13329;48.402;11.718;2024-01-10T05:22:22;96953.09;;;-5.05;81.42
25392;BME280;13329;48.402;11.718;2024-01-10T05:24:47;96954.59;;;-5.02;82.38
25392;BME280;13329;48.402;11.718;2024-01-10T05:27:12;96955.03;;;-4.60;81.86
25392;BME280;13329;48.402;11.718;2024-01-10T05:29:38;96960.25;;;-4.32;79.97
25392;BME280;13329;48.402;11.718;2024-01-10T05:32:03;96962.44;;;-4.38;79.57
25392;BME280;13329;48.402;11.718;2024-01-10T05:34:29;96965.53;;;-4.91;80.89
25392;BME280;13329;48.402;11.718;2024-01-10T05:36:54;96965.97;;;-5.24;82.74
25392;BME280;13329;48.402;11.718;2024-01-10T05:39:19;96967.97;;;-4.99;83.16
25392;BME280;13329;48.402;11.718;2024-01-10T05:41:45;96981.09;;;-4.63;82.71
25392;BME280;13329;48.402;11.718;2024-01-10T05:44:11;96975.28;;;-4.84;82.18
25392;BME280;13329;48.402;11.718;2024-01-10T05:46:36;96977.41;;;-4.60;82.34
25392;BME280;13329;48.402;11.718;2024-01-10T05:49:02;96973.63;;;-4.66;81.39
25392;BME280;13329;48.402;11.718;2024-01-10T05:51:29;96982.56;;;-4.60;81.29
25392;BME280;13329;48.402;11.718;2024-01-10T05:53:54;96973.38;;;-4.63;81.28
25392;BME280;13329;48.402;11.718;2024-01-10T05:56:20;96967.09;;;-4.51;81.04
25392;BME280;13329;48.402;11.718;2024-01-10T05:58:45;96970.91;;;-4.55;81.57
25392;BME280;13329;48.402;11.718;2024-01-10T06:01:10;96973.06;;;-4.60;81.27
25392;BME280;13329;48.402;11.718;2024-01-10T06:03:36;96973.53;;;-4.74;83.17
25392;BME280;13329;48.402;11.718;2024-01-10T06:06:01;96968.09;;;-4.91;83.27
25392;BME280;13329;48.402;11.718;2024-01-10T06:08:27;96971.78;;;-4.83;83.72
25392;BME280;13329;48.402;11.718;2024-01-10T06:10:53;96970.53;;;-5.37;83.66
25392;BME280;13329;48.402;11.718;2024-01-10T06:13:19;96962.03;;;-5.09;85.67
25392;BME280;13329;48.402;11.718;2024-01-10T06:15:44;96964.59;;;-5.19;85.13
25392;BME280;13329;48.402;11.718;2024-01-10T06:18:10;96966.09;;;-4.97;84.60
25392;BME280;13329;48.402;11.718;2024-01-10T06:20:35;96975.44;;;-5.34;86.82
25392;BME280;13329;48.402;11.718;2024-01-10T06:23:03;96966.34;;;-5.00;86.02
25392;BME280;13329;48.402;11.718;2024-01-10T06:25:28;96971.78;;;-4.93;86.53
25392;BME280;13329;48.402;11.718;2024-01-10T06:27:54;96973.94;;;-4.69;84.75
25392;BME280;13329;48.402;11.718;2024-01-10T06:30:19;96980.66;;;-4.49;83.60
25392;BME280;13329;48.402;11.718;2024-01-10T06:32:45;96981.81;;;-4.33;83.54
25392;BME280;13329;48.402;11.718;2024-01-10T06:35:10;96979.38;;;-4.25;82.09
25392;BME280;13329;48.402;11.718;2024-01-10T06:37:35;96976.38;;;-4.77;82.62
25392;BME280;13329;48.402;11.718;2024-01-10T06:40:01;96978.91;;;-5.74;87.81
25392;BME280;13329;48.402;11.718;2024-01-10T06:42:26;96986.56;;;-5.84;91.34
25392;BME280;13329;48.402;11.718;2024-01-10T06:44:51;96989.31;;;-5.56;93.30
25392;BME280;13329;48.402;11.718;2024-01-10T06:47:16;96978.66;;;-5.13;91.33
25392;BME280;13329;48.402;11.718;2024-01-10T06:49:42;96978.94;;;-4.77;89.53
25392;BME280;13329;48.402;11.718;2024-01-10T06:52:07;96981.66;;;-4.88;88.09
25392;BME280;13329;48.402;11.718;2024-01-10T06:54:33;96989.91;;;-4.95;87.63
25392;BME280;13329;48.402;11.718;2024-01-10T06:56:58;96985.69;;;-4.76;87.88
25392;BME280;13329;48.402;11.718;2024-01-10T06:59:23;96994.81;;;-5.21;87.41
25392;BME280;13329;48.402;11.718;2024-01-10T07:01:53;96992.34;;;-5.32;90.02
25392;BME280;13329;48.402;11.718;2024-01-10T07:04:18;96992.34;;;-4.74;89.54
25392;BME280;13329;48.402;11.718;2024-01-10T07:06:47;97001.88;;;-4.37;87.04
25392;BME280;13329;48.402;11.718;2024-01-10T07:09:12;97003.06;;;-4.22;85.18
25392;BME280;13329;48.402;11.718;2024-01-10T07:11:37;97002.75;;;-4.09;83.78
25392;BME280;13329;48.402;11.718;2024-01-10T07:14:03;97004.09;;;-4.05;83.47
25392;BME280;13329;48.402;11.718;2024-01-10T07:16:28;97004.75;;;-4.03;82.41
25392;BME280;13329;48.402;11.718;2024-01-10T07:18:53;96996.13;;;-3.84;81.90
25392;BME280;13329;48.402;11.718;2024-01-10T07:21:19;97001.81;;;-3.80;81.26
25392;BME280;13329;48.402;11.718;2024-01-10T07:23:44;97007.63;;;-4.06;80.97
25392;BME280;13329;48.402;11.718;2024-01-10T07:26:09;97009.75;;;-4.29;82.79
25392;BME280;13329;48.402;11.718;2024-01-10T07:28:37;97016.13;;;-4.33;83.02
25392;BME280;13329;48.402;11.718;2024-01-10T07:31:03;97017.81;;;-4.71;84.39
25392;BME280;13329;48.402;11.718;2024-01-10T07:33:28;97023.50;;;-4.67;85.55
25392;BME280;13329;48.402;11.718;2024-01-10T07:36:00;97027.81;;;-5.35;87.02
25392;BME280;13329;48.402;11.718;2024-01-10T07:38:26;97024.88;;;-5.02;89.64
25392;BME280;13329;48.402;11.718;2024-01-10T07:40:51;97032.97;;;-4.68;89.28
25392;BME280;13329;48.402;11.718;2024-01-10T07:43:16;97042.16;;;-4.55;86.96
25392;BME280;13329;48.402;11.718;2024-01-10T07:45:41;97042.72;;;-5.10;87.40
25392;BME280;13329;48.402;11.718;2024-01-10T07:48:07;97045.84;;;-4.68;88.19
25392;BME280;13329;48.402;11.718;2024-01-10T07:50:32;97045.72;;;-4.85;86.80
25392;BME280;13329;48.402;11.718;2024-01-10T07:52:57;97048.69;;;-4.71;86.41
25392;BME280;13329;48.402;11.718;2024-01-10T07:55:23;97050.59;;;-5.11;87.11
25392;BME280;13329;48.402;11.718;2024-01-10T07:57:48;97040.34;;;-5.52;89.89
25392;BME280;13329;48.402;11.718;2024-01-10T08:00:14;97044.88;;;-5.15;91.23
25392;BME280;13329;48.402;11.718;2024-01-10T08:02:40;97040.28;;;-5.21;90.19
25392;BME280;13329;48.402;11.718;2024-01-10T08:05:06;97056.78;;;-5.14;90.26
25392;BME280;13329;48.402;11.718;2024-01-10T08:07:34;97053.59;;;-4.68;88.69
25392;BME280;13329;48.402;11.718;2024-01-10T08:10:00;97058.97;;;-5.00;88.08
25392;BME280;13329;48.402;11.718;2024-01-10T08:12:25;97056.22;;;-5.27;89.08
25392;BME280;13329;48.402;11.718;2024-01-10T08:14:51;97057.13;;;-5.48;91.14
25392;BME280;13329;48.402;11.718;2024-01-10T08:17:16;97050.84;;;-5.05;91.02
25392;BME280;13329;48.402;11.718;2024-01-10T08:19:42;97048.44;;;-5.06;90.52
25392;BME280;13329;48.402;11.718;2024-01-10T08:22:07;97043.53;;;-5.09;90.39
25392;BME280;13329;48.402;11.718;2024-01-10T08:24:33;97045.84;;;-4.97;90.27
25392;BME280;13329;48.402;11.718;2024-01-10T08:26:58;97047.63;;;-4.68;90.00
25392;BME280;13329;48.402;11.718;2024-01-10T08:29:23;97049.78;;;-4.54;88.85
25392;BME280;13329;48.402;11.718;2024-01-10T08:31:55;97047.56;;;-4.29;86.65
25392;BME280;13329;48.402;11.718;2024-01-10T08:34:21;97050.25;;;-4.11;85.66
25392;BME280;13329;48.402;11.718;2024-01-10T08:36:46;97053.66;;;-3.83;84.88
25392;BME280;13329;48.402;11.718;2024-01-10T08:39:16;97047.22;;;-4.83;85.37
25392;BME280;13329;48.402;11.718;2024-01-10T08:41:41;97049.78;;;-4.73;88.98
25392;BME280;13329;48.402;11.718;2024-01-10T08:44:09;97048.69;;;-4.61;89.04
25392;BME280;13329;48.402;11.718;2024-01-10T08:46:35;97048.69;;;-4.51;88.88
25392;BME280;13329;48.402;11.718;2024-01-10T08:49:00;97045.47;;;-4.82;90.27
25392;BME280;13329;48.402;11.718;2024-01-10T08:51:25;97050.31;;;-4.79;88.96
25392;BME280;13329;48.402;11.718;2024-01-10T08:53:52;97056.41;;;-4.61;89.09
25392;BME280;13329;48.402;11.718;2024-01-10T08:56:18;97055.88;;;-4.45;88.35
25392;BME280;13329;48.402;11.718;2024-01-10T08:58:44;97053.03;;;-4.81;89.81
25392;BME280;13329;48.402;11.718;2024-01-10T09:01:10;97046.53;;;-4.95;89.06
25392;BME280;13329;48.402;11.718;2024-01-10T09:03:36;97053.56;;;-4.97;89.79
25392;BME280;13329;48.402;11.718;2024-01-10T09:06:03;97059.53;;;-4.67;89.53
25392;BME280;13329;48.402;11.718;2024-01-10T09:08:29;97056.91;;;-4.28;88.33
25392;BME280;13329;48.402;11.718;2024-01-10T09:10:54;97065.25;;;-3.97;86.24
25392;BME280;13329;48.402;11.718;2024-01-10T09:13:19;97068.31;;;-4.31;85.64
25392;BME280;13329;48.402;11.718;2024-01-10T09:15:45;97072.78;;;-4.43;86.35
25392;BME280;13329;48.402;11.718;2024-01-10T09:18:10;97075.13;;;-4.49;88.81
25392;BME280;13329;48.402;11.718;2024-01-10T09:20:36;97069.41;;;-5.01;89.84
25392;BME280;13329;48.402;11.718;2024-01-10T09:23:01;97085.56;;;-5.49;93.06
25392;BME280;13329;48.402;11.718;2024-01-10T09:25:27;97076.41;;;-5.23;95.53
25392;BME280;13329;48.402;11.718;2024-01-10T09:27:53;97076.56;;;-5.24;94.92
25392;BME280;13329;48.402;11.718;2024-01-10T09:30:19;97073.06;;;-5.04;94.99
25392;BME280;13329;48.402;11.718;2024-01-10T09:32:45;97079.94;;;-5.14;95.29
25392;BME280;13329;48.402;11.718;2024-01-10T09:35:11;97079.66;;;-5.30;96.71
25392;BME280;13329;48.402;11.718;2024-01-10T09:37:36;97076.72;;;-5.16;96.36
25392;BME280;13329;48.402;11.718;2024-01-10T09:40:01;97079.84;;;-5.03;96.77
25392;BME280;13329;48.402;11.718;2024-01-10T09:42:27;97076.34;;;-4.82;94.82
25392;BME280;13329;48.402;11.718;2024-01-10T09:44:56;97076.88;;;-4.50;91.54
25392;BME280;13329;48.402;11.718;2024-01-10T09:47:22;97072.34;;;-4.09;90.18
25392;BME280;13329;48.402;11.718;2024-01-10T09:49:47;97076.88;;;-4.30;89.27
25392;BME280;13329;48.402;11.718;2024-01-10T09:52:26;97073.31;;;-4.20;88.99
25392;BME280;13329;48.402;11.718;2024-01-10T09:54:54;97086.59;;;-3.68;89.28
25392;BME280;13329;48.402;11.718;2024-01-10T09:57:20;97073.16;;;-3.34;86.32
25392;BME280;13329;48.402;11.718;2024-01-10T09:59:47;97076.09;;;-3.01;83.55
25392;BME280;13329;48.402;11.718;2024-01-10T10:02:13;97081.81;;;-3.63;84.01
25392;BME280;13329;48.402;11.718;2024-01-10T10:04:41;97084.25;;;-3.61;84.49
25392;BME280;13329;48.402;11.718;2024-01-10T10:07:10;97081.94;;;-3.92;83.95
25392;BME280;13329;48.402;11.718;2024-01-10T10:09:35;97086.41;;;-3.56;84.91
25392;BME280;13329;48.402;11.718;2024-01-10T10:12:00;97083.28;;;-3.88;84.68
25392;BME280;13329;48.402;11.718;2024-01-10T10:14:28;97081.84;;;-3.35;85.73
25392;BME280;13329;48.402;11.718;2024-01-10T10:16:53;97086.81;;;-3.24;83.21
25392;BME280;13329;48.402;11.718;2024-01-10T10:19:25;97081.19;;;-2.92;82.26
25392;BME280;13329;48.402;11.718;2024-01-10T10:21:51;97085.69;;;-3.21;82.71
25392;BME280;13329;48.402;11.718;2024-01-10T10:24:16;97076.50;;;-2.88;81.41
25392;BME280;13329;48.402;11.718;2024-01-10T10:26:42;97083.22;;;-2.60;79.51
25392;BME280;13329;48.402;11.718;2024-01-10T10:29:07;97072.25;;;-2.62;79.01
25392;BME280;13329;48.402;11.718;2024-01-10T10:31:32;97080.81;;;-2.43;79.12
25392;BME280;13329;48.402;11.718;2024-01-10T10:34:00;97080.41;;;-2.30;77.79
25392;BME280;13329;48.402;11.718;2024-01-10T10:36:26;97073.06;;;-2.17;77.18
25392;BME280;13329;48.402;11.718;2024-01-10T10:38:51;97081.66;;;-1.91;76.34
25392;BME280;13329;48.402;11.718;2024-01-10T10:41:18;97077.59;;;-1.93;75.25
25392;BME280;13329;48.402;11.718;2024-01-10T10:43:43;97078.69;;;-2.22;76.35
25392;BME280;13329;48.402;11.718;2024-01-10T10:46:10;97079.69;;;-2.41;76.45
25392;BME280;13329;48.402;11.718;2024-01-10T10:48:37;97082.78;;;-2.11;75.91
25392;BME280;13329;48.402;11.718;2024-01-10T10:51:05;97087.75;;;-2.00;75.98
25392;BME280;13329;48.402;11.718;2024-01-10T10:53:35;97089.44;;;-1.83;74.96
25392;BME280;13329;48.402;11.718;2024-01-10T10:56:04;97088.75;;;-2.37;75.32
25392;BME280;13329;48.402;11.718;2024-01-10T10:58:35;97086.28;;;-2.82;79.59
25392;BME280;13329;48.402;11.718;2024-01-10T11:01:04;97092.69;;;-2.68;78.78
25392;BME280;13329;48.402;11.718;2024-01-10T11:03:30;97094.00;;;-3.00;78.92
25392;BME280;13329;48.402;11.718;2024-01-10T11:05:58;97089.16;;;-2.67;78.76
25392;BME280;13329;48.402;11.718;2024-01-10T11:08:24;97092.16;;;-2.54;77.69
25392;BME280;13329;48.402;11.718;2024-01-10T11:10:51;97091.00;;;-3.23;81.14
25392;BME280;13329;48.402;11.718;2024-01-10T11:24:57;97089.56;;;-2.54;77.76
25392;BME280;13329;48.402;11.718;2024-01-10T11:27:22;97093.19;;;-2.65;79.41
25392;BME280;13329;48.402;11.718;2024-01-10T11:29:48;97087.66;;;-2.52;78.69
25392;BME280;13329;48.402;11.718;2024-01-10T11:32:18;97085.53;;;-2.39;78.90
25392;BME280;13329;48.402;11.718;2024-01-10T11:34:59;97088.75;;;-2.37;77.74
25392;BME280;13329;48.402;11.718;2024-01-10T11:37:43;97078.50;;;-1.76;77.51
25392;BME280;13329;48.402;11.718;2024-01-10T11:40:10;97078.28;;;-1.57;76.03
25392;BME280;13329;48.402;11.718;2024-01-10T11:42:45;97083.81;;;-1.44;74.60
25392;BME280;13329;48.402;11.718;2024-01-10T11:47:56;97080.00;;;-2.44;77.91
25392;BME280;13329;48.402;11.718;2024-01-10T11:50:22;97075.78;;;-2.01;77.96
25392;BME280;13329;48.402;11.718;2024-01-10T11:52:52;97084.06;;;-1.63;77.24
25392;BME280;13329;48.402;11.718;2024-01-10T11:55:46;97075.03;;;-1.17;75.15
25392;BME280;13329;48.402;11.718;2024-01-10T11:58:12;97072.09;;;-1.22;73.75
25392;BME280;13329;48.402;11.718;2024-01-10T12:00:37;97068.19;;;-1.34;74.63
25392;BME280;13329;48.402;11.718;2024-01-10T12:03:03;97071.38;;;-1.48;75.13
25392;BME280;13329;48.402;11.718;2024-01-10T12:05:29;97070.06;;;-1.10;74.28
25392;BME280;13329;48.402;11.718;2024-01-10T12:07:54;97074.25;;;-1.01;72.90
25392;BME280;13329;48.402;11.718;2024-01-10T12:10:20;97070.44;;;-0.81;72.38
25392;BME280;13329;48.402;11.718;2024-01-10T12:12:46;97071.91;;;-0.70;71.77
25392;BME280;13329;48.402;11.718;2024-01-10T12:15:11;97067.81;;;-0.89;72.09
25392;BME280;13329;48.402;11.718;2024-01-10T12:17:36;97069.19;;;-1.27;72.99
25392;BME280;13329;48.402;11.718;2024-01-10T12:20:02;97073.00;;;-1.47;73.51
25392;BME280;13329;48.402;11.718;2024-01-10T12:22:27;97072.19;;;-1.48;74.57
25392;BME280;13329;48.402;11.718;2024-01-10T12:24:52;97051.97;;;-1.44;74.34
25392;BME280;13329;48.402;11.718;2024-01-10T12:27:21;97057.00;;;-1.35;74.23
25392;BME280;13329;48.402;11.718;2024-01-10T12:29:50;97055.81;;;-0.98;73.10
25392;BME280;13329;48.402;11.718;2024-01-10T12:32:20;97057.16;;;-0.86;72.13
25392;BME280;13329;48.402;11.718;2024-01-10T12:34:47;97057.31;;;-0.79;71.90
25392;BME280;13329;48.402;11.718;2024-01-10T12:37:12;97054.22;;;-0.91;71.43
25392;BME280;13329;48.402;11.718;2024-01-10T12:39:38;97050.03;;;-0.84;71.74
25392;BME280;13329;48.402;11.718;2024-01-10T12:42:03;97058.06;;;-1.11;71.44
25392;BME280;13329;48.402;11.718;2024-01-10T12:44:31;97057.28;;;-0.87;71.20
25392;BME280;13329;48.402;11.718;2024-01-10T12:46:57;97063.28;;;-0.95;72.10
25392;BME280;13329;48.402;11.718;2024-01-10T12:49:23;97055.47;;;-1.11;71.99
25392;BME280;13329;48.402;11.718;2024-01-10T12:51:49;97054.00;;;-1.14;72.64
25392;BME280;13329;48.402;11.718;2024-01-10T12:54:15;97051.97;;;-0.86;72.94
25392;BME280;13329;48.402;11.718;2024-01-10T12:56:42;97055.19;;;-0.92;71.91
25392;BME280;13329;48.402;11.718;2024-01-10T12:59:07;97062.13;;;-1.09;72.88